Time;durP1;ratioP1;P1;durP2;ratioP2;P2;SDS_P1;SDS_P2;PMS_P1;PMS_P2;Temp;Humidity;BMP_temperature;BMP_pressure;BME280_temperature;BME280_humidity;BME280_pressure;Samples;Min_cycle;Max_cycle;Signal;HPM_P1;HPM_P2
2020/12/05 00:01:26;;;;;;;8.15;7.38;;;4.60;1.00;;;;;;5011337;28;20479;-63
2020/12/05 00:03:53;;;;;;;8.77;7.85;;;4.50;1.00;;;;;;5010906;28;20417;-63
2020/12/05 00:06:23;;;;;;;9.75;7.50;;;4.50;1.80;;;;;;5011114;28;20424;-63
2020/12/05 00:08:49;;;;;;;8.75;7.85;;;4.60;1.40;;;;;;5011321;28;20413;-64
2020/12/05 00:11:16;;;;;;;8.57;7.40;;;4.60;1.50;;;;;;5011295;28;20774;-63
2020/12/05 00:13:42;;;;;;;8.38;7.50;;;4.70;1.20;;;;;;5011190;28;20471;-63
2020/12/05 00:16:08;;;;;;;8.85;7.15;;;4.70;1.00;;;;;;5011196;28;20417;-65
2020/12/05 00:18:34;;;;;;;8.20;7.43;;;4.70;1.00;;;;;;5011298;28;20498;-63
2020/12/05 00:21:01;;;;;;;8.10;7.30;;;4.70;1.00;;;;;;5010998;28;20905;-62
2020/12/05 00:23:27;;;;;;;8.20;7.40;;;4.70;1.00;;;;;;5010647;28;20420;-62
2020/12/05 00:25:53;;;;;;;8.80;7.57;;;4.80;1.00;;;;;;5010926;28;20428;-63
2020/12/05 00:28:19;;;;;;;8.00;7.20;;;4.80;1.00;;;;;;5010952;28;20413;-62
2020/12/05 00:30:45;;;;;;;8.15;7.35;;;4.80;1.00;;;;;;5010829;28;20498;-61
2020/12/05 00:33:11;;;;;;;8.82;7.93;;;4.90;1.00;;;;;;5010962;28;20421;-61
2020/12/05 00:35:37;;;;;;;8.45;7.28;;;4.90;1.00;;;;;;5010515;28;20869;-63
2020/12/05 00:38:04;;;;;;;8.23;7.32;;;5.00;1.00;;;;;;5010889;28;20421;-62
2020/12/05 00:40:30;;;;;;;8.00;7.20;;;5.00;1.00;;;;;;5011269;28;20405;-62
2020/12/05 00:42:57;;;;;;;7.35;6.65;;;5.10;1.00;;;;;;5011052;28;20470;-65
2020/12/05 00:45:23;;;;;;;8.15;6.93;;;5.00;1.00;;;;;;5010902;28;20467;-63
2020/12/05 00:47:49;;;;;;;7.50;6.80;;;5.00;1.00;;;;;;5011054;28;20490;-65
2020/12/05 00:50:15;;;;;;;8.30;7.40;;;5.00;1.00;;;;;;5011058;28;20954;-66
2020/12/05 00:52:41;;;;;;;8.80;7.40;;;5.00;1.00;;;;;;5010973;28;20404;-65
2020/12/05 00:55:08;;;;;;;8.50;7.70;;;5.10;1.00;;;;;;5011143;28;20421;-63
2020/12/05 00:57:35;;;;;;;8.82;7.82;;;5.10;1.00;;;;;;5011046;28;20832;-62
2020/12/05 01:00:01;;;;;;;10.10;7.60;;;5.10;1.00;;;;;;5011195;28;20494;-65
2020/12/05 01:02:27;;;;;;;8.63;7.78;;;5.20;1.00;;;;;;5012273;28;20408;-65
2020/12/05 01:04:53;;;;;;;8.00;7.20;;;5.20;1.00;;;;;;5014769;28;20413;-64
2020/12/05 01:07:25;;;;;;;8.90;8.00;;;5.20;1.00;;;;;;5014650;28;20561;-63
2020/12/05 01:09:51;;;;;;;9.32;7.70;;;5.20;1.00;;;;;;5015337;28;20504;-62
2020/12/05 01:12:18;;;;;;;9.02;7.25;;;5.20;1.00;;;;;;5014658;28;20478;-62
2020/12/05 01:14:44;;;;;;;8.80;7.57;;;5.20;1.00;;;;;;5014712;28;20885;-63
2020/12/05 01:17:10;;;;;;;8.10;7.30;;;5.20;1.00;;;;;;5014645;28;20416;-63
2020/12/05 01:19:36;;;;;;;8.32;7.53;;;5.20;1.00;;;;;;5014466;28;20421;-62
2020/12/05 01:22:02;;;;;;;8.55;7.75;;;5.20;1.00;;;;;;5014604;28;20412;-62
2020/12/05 01:24:28;;;;;;;10.00;8.05;;;5.20;1.00;;;;;;5014205;28;20939;-62
2020/12/05 01:26:55;;;;;;;9.48;8.48;;;5.20;1.00;;;;;;5014248;28;20416;-63
2020/12/05 01:29:21;;;;;;;8.50;7.68;;;5.20;1.00;;;;;;5014395;28;20487;-63
2020/12/05 01:31:48;;;;;;;9.65;8.60;;;5.30;1.00;;;;;;5014303;28;20433;-63
2020/12/05 01:34:14;;;;;;;9.00;8.10;;;5.30;1.00;;;;;;5014067;28;20412;-65
2020/12/05 01:36:43;;;;;;;9.45;8.20;;;5.40;1.00;;;;;;5014223;28;20483;-65
2020/12/05 01:39:09;;;;;;;10.00;9.00;;;5.30;1.00;;;;;;5014031;28;20499;-62
2020/12/05 01:41:35;;;;;;;10.38;9.27;;;5.20;1.00;;;;;;5014113;28;20455;-62
2020/12/05 01:44:02;;;;;;;10.45;9.40;;;5.10;1.00;;;;;;5014111;28;20495;-63
2020/12/05 01:46:37;;;;;;;10.07;9.07;;;5.10;1.00;;;;;;5013817;28;20416;-62
2020/12/05 01:49:04;;;;;;;10.40;9.40;;;5.10;1.00;;;;;;5014072;28;20436;-62
2020/12/05 01:51:31;;;;;;;9.10;8.15;;;5.00;1.00;;;;;;5013822;28;20424;-64
2020/12/05 01:53:58;;;;;;;10.07;8.77;;;5.00;1.00;;;;;;5013820;28;20412;-62
2020/12/05 01:56:26;;;;;;;8.70;7.90;;;5.00;1.00;;;;;;5013478;28;20413;-62
2020/12/05 01:58:52;;;;;;;8.98;8.07;;;5.00;1.00;;;;;;5013625;28;20412;-62
2020/12/05 02:01:21;;;;;;;8.63;7.57;;;5.00;1.00;;;;;;5013495;28;20413;-63
2020/12/05 02:03:51;;;;;;;9.43;8.43;;;5.00;1.00;;;;;;5013834;28;20500;-63
2020/12/05 02:06:27;;;;;;;8.98;8.00;;;5.10;1.00;;;;;;5013533;28;20470;-65
2020/12/05 02:09:00;;;;;;;9.80;8.90;;;5.10;1.00;;;;;;5013618;28;20408;-62
2020/12/05 02:11:37;;;;;;;9.37;8.47;;;5.20;1.00;;;;;;5013285;28;20468;-63
2020/12/05 02:14:07;;;;;;;10.82;9.52;;;5.10;1.00;;;;;;5012373;28;20413;-63
2020/12/05 02:16:34;;;;;;;10.50;9.23;;;5.10;1.00;;;;;;5013364;28;20417;-63
2020/12/05 02:19:02;;;;;;;10.75;9.30;;;5.10;1.00;;;;;;5013506;28;20412;-62
2020/12/05 02:21:29;;;;;;;10.90;9.80;;;5.00;1.00;;;;;;5013228;28;20409;-62
2020/12/05 02:23:57;;;;;;;11.33;9.87;;;5.10;1.00;;;;;;5013197;28;20409;-64
2020/12/05 02:26:24;;;;;;;11.20;9.35;;;5.10;1.00;;;;;;5012872;28;20413;-64
2020/12/05 02:28:50;;;;;;;10.87;9.80;;;5.20;1.00;;;;;;5013317;28;20466;-62
2020/12/05 02:31:16;;;;;;;10.45;9.25;;;5.30;1.00;;;;;;5012910;28;20432;-62
2020/12/05 02:33:43;;;;;;;10.57;9.20;;;5.30;1.00;;;;;;5013050;28;20486;-63
2020/12/05 02:36:11;;;;;;;11.98;9.93;;;5.40;1.00;;;;;;5012955;28;20448;-62
2020/12/05 02:38:46;;;;;;;11.98;10.07;;;5.50;1.00;;;;;;5012909;28;20421;-64
2020/12/05 02:41:13;;;;;;;11.65;10.00;;;5.50;1.00;;;;;;5012972;28;20413;-63
2020/12/05 02:43:39;;;;;;;11.48;9.85;;;5.50;1.00;;;;;;5012952;28;20464;-62
2020/12/05 02:46:06;;;;;;;12.50;9.82;;;5.50;1.00;;;;;;5012845;28;20420;-65
2020/12/05 02:48:32;;;;;;;11.88;10.68;;;5.50;1.00;;;;;;5012708;28;20785;-65
2020/12/05 02:50:58;;;;;;;12.82;10.32;;;5.60;1.00;;;;;;5012807;28;20424;-66
2020/12/05 02:53:24;;;;;;;12.95;10.70;;;5.60;1.00;;;;;;5012575;28;20412;-65
2020/12/05 02:55:50;;;;;;;13.68;10.60;;;5.60;1.00;;;;;;5012534;28;20416;-63
2020/12/05 02:58:17;;;;;;;14.15;12.13;;;5.70;1.00;;;;;;5012593;28;20467;-63
2020/12/05 03:00:43;;;;;;;14.90;11.95;;;5.70;1.00;;;;;;5012838;28;20408;-62
2020/12/05 03:03:09;;;;;;;13.40;11.80;;;5.60;1.00;;;;;;5012717;28;20412;-62
2020/12/05 03:05:35;;;;;;;13.38;11.32;;;5.60;1.00;;;;;;5012365;28;20475;-63
2020/12/05 03:08:01;;;;;;;14.87;12.50;;;5.50;1.00;;;;;;5012331;28;20413;-63
2020/12/05 03:10:28;;;;;;;14.35;12.43;;;5.50;1.00;;;;;;5012412;28;20476;-63
2020/12/05 03:12:54;;;;;;;14.68;12.68;;;5.50;1.00;;;;;;5012588;28;20443;-62
2020/12/05 03:15:21;;;;;;;17.67;13.52;;;5.50;1.00;;;;;;5012311;28;20405;-63
2020/12/05 03:17:47;;;;;;;17.10;13.80;;;5.50;1.00;;;;;;5012219;28;20451;-63
2020/12/05 03:20:13;;;;;;;16.40;13.70;;;5.50;1.00;;;;;;5012173;28;20507;-63
2020/12/05 03:22:39;;;;;;;18.35;13.73;;;5.50;1.00;;;;;;5012175;28;20408;-63
2020/12/05 03:25:05;;;;;;;19.73;14.13;;;5.60;1.00;;;;;;5012174;28;20451;-62
2020/12/05 03:27:32;;;;;;;16.33;14.13;;;5.50;1.00;;;;;;5012653;28;21041;-62
2020/12/05 03:29:58;;;;;;;19.10;14.65;;;5.50;1.00;;;;;;5012837;28;20877;-63
2020/12/05 03:32:28;;;;;;;17.40;14.13;;;5.40;1.00;;;;;;5012798;28;20435;-62
2020/12/05 03:34:54;;;;;;;17.63;14.95;;;5.50;1.00;;;;;;5012825;28;20416;-62
2020/12/05 03:37:23;;;;;;;19.60;15.40;;;5.50;1.00;;;;;;5013212;28;20409;-62
2020/12/05 03:39:49;;;;;;;20.50;15.40;;;5.50;1.00;;;;;;5012668;28;20412;-64
2020/12/05 03:42:15;;;;;;;19.20;14.88;;;5.50;1.00;;;;;;5012796;28;20413;-66
2020/12/05 03:44:41;;;;;;;19.20;15.27;;;5.60;1.00;;;;;;5012785;28;20413;-66
2020/12/05 03:47:07;;;;;;;19.88;15.63;;;5.50;1.00;;;;;;5011961;28;20417;-65
2020/12/05 03:49:34;;;;;;;19.60;14.95;;;5.50;1.00;;;;;;5011779;28;20416;-64
2020/12/05 03:52:01;;;;;;;21.50;16.08;;;5.50;1.00;;;;;;5011825;28;20443;-62
2020/12/05 03:54:27;;;;;;;21.25;16.30;;;5.50;1.00;;;;;;5011816;28;20478;-62
2020/12/05 03:56:53;;;;;;;19.70;15.70;;;5.40;1.00;;;;;;5011917;28;20416;-62
2020/12/05 03:59:20;;;;;;;20.75;16.45;;;5.40;1.00;;;;;;5012048;28;20462;-63
2020/12/05 04:01:46;;;;;;;21.15;16.10;;;5.40;1.00;;;;;;5011750;28;20416;-64
2020/12/05 04:04:13;;;;;;;22.35;16.95;;;5.40;1.00;;;;;;5012352;28;20405;-63
2020/12/05 04:06:40;;;;;;;21.30;15.87;;;5.40;1.00;;;;;;5011314;28;20413;-62
2020/12/05 04:09:06;;;;;;;21.73;16.65;;;5.50;1.00;;;;;;5011629;28;20420;-63
2020/12/05 04:11:37;;;;;;;21.90;16.08;;;5.40;1.00;;;;;;5011502;28;20424;-62
2020/12/05 04:14:04;;;;;;;21.33;16.08;;;5.40;1.00;;;;;;5011476;28;20793;-62
2020/12/05 04:16:30;;;;;;;20.65;15.40;;;5.40;1.00;;;;;;5011127;28;20889;-66
2020/12/05 04:18:56;;;;;;;21.02;15.95;;;5.30;1.00;;;;;;5011200;28;20471;-66
2020/12/05 04:21:22;;;;;;;21.55;16.90;;;5.40;1.00;;;;;;5011522;28;20409;-66
2020/12/05 04:23:49;;;;;;;24.88;17.77;;;5.40;1.00;;;;;;5011406;28;20409;-65
2020/12/05 04:26:15;;;;;;;21.65;16.95;;;5.30;1.00;;;;;;5011297;28;20893;-63
2020/12/05 04:28:41;;;;;;;18.95;15.55;;;5.30;1.00;;;;;;5011053;28;20417;-62
2020/12/05 04:31:07;;;;;;;21.80;16.70;;;5.30;1.00;;;;;;5011166;28;20424;-64
2020/12/05 04:33:33;;;;;;;20.20;15.77;;;5.30;1.00;;;;;;5011138;28;20878;-63
2020/12/05 04:35:59;;;;;;;20.92;15.93;;;5.30;1.00;;;;;;5011208;28;20796;-63
2020/12/05 04:38:26;;;;;;;22.27;17.38;;;5.20;1.00;;;;;;5014116;28;20527;-63
2020/12/05 04:40:57;;;;;;;22.38;17.25;;;5.20;1.00;;;;;;5015222;28;20455;-63
2020/12/05 04:43:24;;;;;;;25.60;17.05;;;5.20;1.00;;;;;;5015123;28;20801;-65
2020/12/05 04:45:51;;;;;;;22.08;17.10;;;5.20;1.00;;;;;;5015009;28;20479;-63
2020/12/05 04:48:17;;;;;;;22.30;17.42;;;5.20;1.00;;;;;;5015100;28;20412;-65
2020/12/05 04:50:46;;;;;;;23.60;17.20;;;5.10;1.00;;;;;;5015005;28;20412;-63
2020/12/05 04:53:17;;;;;;;23.92;16.85;;;5.20;1.00;;;;;;5015090;28;20416;-63
2020/12/05 04:55:43;;;;;;;24.05;18.23;;;5.20;1.00;;;;;;5014907;28;20439;-66
2020/12/05 04:58:18;;;;;;;23.70;17.87;;;5.20;1.00;;;;;;5014857;28;20885;-61
2020/12/05 05:00:45;;;;;;;24.02;18.20;;;5.20;1.00;;;;;;5014650;28;20417;-63
2020/12/05 05:03:15;;;;;;;22.43;16.60;;;5.20;1.00;;;;;;5014750;28;20943;-63
2020/12/05 05:05:41;;;;;;;23.02;17.35;;;5.20;1.00;;;;;;5014573;28;20447;-63
2020/12/05 05:08:07;;;;;;;26.33;17.88;;;5.10;1.00;;;;;;5014384;28;20898;-65
2020/12/05 05:10:35;;;;;;;24.38;17.40;;;5.10;1.00;;;;;;5014883;28;20417;-65
2020/12/05 05:13:06;;;;;;;23.73;17.70;;;5.10;1.00;;;;;;5014701;28;20432;-62
2020/12/05 05:15:33;;;;;;;24.80;18.52;;;5.00;1.00;;;;;;5014615;28;20456;-63
2020/12/05 05:18:01;;;;;;;24.48;18.58;;;5.00;1.00;;;;;;5014551;28;20431;-65
2020/12/05 05:20:28;;;;;;;24.90;18.20;;;5.10;1.00;;;;;;5014399;28;20416;-62
2020/12/05 05:23:08;;;;;;;24.07;17.90;;;5.10;1.00;;;;;;5014606;28;20413;-62
2020/12/05 05:25:55;;;;;;;23.23;16.90;;;5.00;1.00;;;;;;5014205;28;20419;-63
2020/12/05 05:28:24;;;;;;;25.57;18.53;;;5.00;1.00;;;;;;5014444;28;20490;-63
2020/12/05 05:31:06;;;;;;;24.65;19.17;;;5.00;1.00;;;;;;5014256;28;20419;-63
2020/12/05 05:33:42;;;;;;;25.50;18.50;;;4.90;1.00;;;;;;5014220;28;20432;-64
2020/12/05 05:36:19;;;;;;;23.50;17.37;;;4.90;1.00;;;;;;5014298;28;20424;-63
2020/12/05 05:38:59;;;;;;;24.70;18.43;;;5.00;1.00;;;;;;5014334;28;20465;-63
2020/12/05 05:41:26;;;;;;;22.92;18.23;;;5.00;1.00;;;;;;5014070;28;20924;-62
2020/12/05 05:44:00;;;;;;;24.00;17.88;;;5.10;1.00;;;;;;5014087;28;20413;-62
2020/12/05 05:46:29;;;;;;;22.90;17.25;;;5.20;1.00;;;;;;5013802;28;20412;-65
2020/12/05 05:48:56;;;;;;;22.75;17.92;;;5.20;1.00;;;;;;5014020;28;20535;-62
2020/12/05 05:51:40;;;;;;;24.08;17.75;;;5.10;1.00;;;;;;5014034;28;20487;-65
2020/12/05 05:54:14;;;;;;;21.83;17.02;;;5.10;1.00;;;;;;5013866;28;20479;-65
2020/12/05 05:57:02;;;;;;;24.02;18.00;;;5.10;1.00;;;;;;5013586;28;20416;-63
2020/12/05 05:59:30;;;;;;;22.33;16.13;;;5.20;1.00;;;;;;5013939;28;20471;-65
2020/12/05 06:01:59;;;;;;;21.07;16.43;;;5.20;1.00;;;;;;5013714;28;20992;-66
2020/12/05 06:04:30;;;;;;;21.85;17.05;;;5.20;1.00;;;;;;5013512;28;20412;-66
2020/12/05 06:06:58;;;;;;;21.75;16.80;;;5.20;1.00;;;;;;5013257;28;20494;-66
2020/12/05 06:09:28;;;;;;;23.85;16.27;;;5.20;1.00;;;;;;5013826;28;20448;-66
2020/12/05 06:11:56;;;;;;;23.73;17.00;;;5.10;1.00;;;;;;5013612;28;20425;-62
2020/12/05 06:14:23;;;;;;;23.20;17.15;;;5.00;1.00;;;;;;5013561;28;20417;-63
2020/12/05 06:16:51;;;;;;;22.08;17.13;;;5.10;1.00;;;;;;5013445;28;20416;-66
2020/12/05 06:19:19;;;;;;;25.25;17.73;;;5.00;1.00;;;;;;5013314;28;20416;-64
2020/12/05 06:21:50;;;;;;;23.05;17.25;;;5.00;1.00;;;;;;5013160;28;20964;-66
2020/12/05 06:24:24;;;;;;;23.05;17.92;;;5.00;1.00;;;;;;5013524;28;20527;-63
2020/12/05 06:26:53;;;;;;;23.70;17.50;;;5.00;1.00;;;;;;5013369;28;20413;-63
2020/12/05 06:29:19;;;;;;;23.38;16.77;;;5.00;1.00;;;;;;5013151;28;20475;-64
2020/12/05 06:31:46;;;;;;;22.13;16.58;;;5.00;1.00;;;;;;5012984;28;20483;-64
2020/12/05 06:34:39;;;;;;;25.30;17.63;;;5.00;1.00;;;;;;5013043;28;20413;-63
2020/12/05 06:37:05;;;;;;;21.77;17.50;;;5.00;1.00;;;;;;5013179;28;20417;-66
2020/12/05 06:39:31;;;;;;;23.30;17.40;;;4.90;1.00;;;;;;5013294;28;20413;-67
2020/12/05 06:41:58;;;;;;;23.67;17.02;;;4.80;1.00;;;;;;5013269;28;20463;-64
2020/12/05 06:44:34;;;;;;;21.90;17.10;;;4.80;1.00;;;;;;5013059;28;20412;-63
2020/12/05 06:47:02;;;;;;;21.27;16.08;;;4.90;1.00;;;;;;5012906;28;20417;-63
2020/12/05 06:49:50;;;;;;;23.73;18.00;;;4.80;1.00;;;;;;5013343;28;20409;-63
2020/12/05 06:52:35;;;;;;;24.95;17.90;;;4.80;1.00;;;;;;5012911;28;20460;-64
2020/12/05 06:55:04;;;;;;;24.08;17.42;;;4.80;1.00;;;;;;5013117;28;20458;-63
2020/12/05 06:57:31;;;;;;;22.73;17.10;;;4.80;1.00;;;;;;5012967;28;20551;-63
2020/12/05 07:00:21;;;;;;;21.10;16.58;;;4.80;1.00;;;;;;5012173;28;20413;-62
2020/12/05 07:02:58;;;;;;;21.90;16.05;;;4.80;1.00;;;;;;5012533;28;20919;-63
2020/12/05 07:05:33;;;;;;;21.85;17.55;;;4.80;1.00;;;;;;5012839;28;20421;-66
2020/12/05 07:08:01;;;;;;;21.17;16.00;;;4.80;1.00;;;;;;5012284;28;20476;-63
2020/12/05 07:10:53;;;;;;;20.67;15.30;;;4.80;1.00;;;;;;5012475;28;20475;-63
2020/12/05 07:13:20;;;;;;;21.92;17.02;;;4.70;1.00;;;;;;5012168;28;20429;-64
2020/12/05 07:15:47;;;;;;;23.25;16.38;;;4.70;1.00;;;;;;5012180;28;20413;-63
2020/12/05 07:18:25;;;;;;;22.10;15.88;;;4.70;1.00;;;;;;5012198;28;20413;-64
2020/12/05 07:20:53;;;;;;;19.83;15.93;;;4.70;1.00;;;;;;5012141;28;20776;-64
2020/12/05 07:23:19;;;;;;;20.13;15.10;;;4.70;1.00;;;;;;5012234;28;20400;-64
2020/12/05 07:25:45;;;;;;;21.92;16.13;;;4.60;1.00;;;;;;5011930;28;20412;-63
2020/12/05 07:28:12;;;;;;;22.35;15.70;;;4.70;1.00;;;;;;5012011;28;20412;-64
2020/12/05 07:30:38;;;;;;;20.80;14.80;;;4.60;1.00;;;;;;5011795;28;20417;-64
2020/12/05 07:33:07;;;;;;;18.95;15.43;;;4.60;1.00;;;;;;5012072;28;20428;-62
2020/12/05 07:35:35;;;;;;;21.13;15.70;;;4.60;1.00;;;;;;5012341;28;20421;-64
2020/12/05 07:38:10;;;;;;;20.80;15.88;;;4.60;1.00;;;;;;5012171;28;20428;-63
2020/12/05 07:40:36;;;;;;;19.85;14.68;;;4.60;1.00;;;;;;5012066;28;20428;-62
2020/12/05 07:43:03;;;;;;;19.60;15.55;;;4.70;1.00;;;;;;5011893;28;20417;-63
2020/12/05 07:45:30;;;;;;;18.50;14.88;;;4.70;1.00;;;;;;5011957;28;21081;-63
2020/12/05 07:47:56;;;;;;;19.80;15.27;;;4.70;1.00;;;;;;5011850;28;20425;-63
2020/12/05 07:50:31;;;;;;;20.77;14.90;;;4.70;1.00;;;;;;5011885;28;20455;-62
2020/12/05 07:52:57;;;;;;;19.85;14.90;;;4.60;1.00;;;;;;5011797;28;20433;-62
2020/12/05 07:55:29;;;;;;;19.48;14.15;;;4.50;1.00;;;;;;5011553;28;20451;-63
2020/12/05 07:57:55;;;;;;;17.17;14.50;;;4.50;1.00;;;;;;5011838;28;20973;-62
2020/12/05 08:00:22;;;;;;;20.15;15.00;;;4.60;1.00;;;;;;5011871;28;20463;-63
2020/12/05 08:03:12;;;;;;;18.77;14.40;;;4.50;1.00;;;;;;5011429;28;20955;-63
2020/12/05 08:05:50;;;;;;;20.83;14.60;;;4.50;1.00;;;;;;5011484;28;20405;-63
2020/12/05 08:08:18;;;;;;;18.37;13.87;;;4.50;1.00;;;;;;5011337;28;20458;-63
2020/12/05 08:10:45;;;;;;;16.60;13.48;;;4.50;1.00;;;;;;5011518;28;20505;-64
2020/12/05 08:13:30;;;;;;;19.98;13.73;;;4.50;1.00;;;;;;5010698;28;20840;-65
2020/12/05 08:16:02;;;;;;;20.80;14.48;;;4.50;1.00;;;;;;5011636;28;20435;-63
2020/12/05 08:18:30;;;;;;;19.07;13.87;;;4.50;1.00;;;;;;5011224;28;20413;-63
2020/12/05 08:20:57;;;;;;;19.02;14.45;;;4.60;1.00;;;;;;5011828;28;20417;-63
2020/12/05 08:23:25;;;;;;;16.17;13.48;;;4.70;1.00;;;;;;5011552;28;20952;-63
2020/12/05 08:25:55;;;;;;;16.73;13.52;;;4.70;1.00;;;;;;5011645;28;20412;-63
2020/12/05 08:28:22;;;;;;;16.55;13.05;;;4.80;1.00;;;;;;5012220;28;20439;-62
2020/12/05 08:30:49;;;;;;;16.30;12.10;;;4.80;1.00;;;;;;5011445;28;20463;-63
2020/12/05 08:33:16;;;;;;;16.30;13.00;;;4.90;1.00;;;;;;5011567;28;20482;-62
2020/12/05 08:35:43;;;;;;;20.02;13.38;;;4.90;1.00;;;;;;5011318;28;20449;-66
2020/12/05 08:38:13;;;;;;;16.23;12.57;;;5.00;1.00;;;;;;5011636;28;20817;-62
2020/12/05 08:40:40;;;;;;;15.20;12.10;;;5.10;1.00;;;;;;5011184;28;20423;-64
2020/12/05 08:43:07;;;;;;;15.65;11.52;;;5.10;1.00;;;;;;5011184;28;20828;-63
2020/12/05 08:45:38;;;;;;;15.03;11.77;;;5.10;1.00;;;;;;5010884;28;20466;-63
2020/12/05 08:48:15;;;;;;;13.77;10.90;;;5.20;1.00;;;;;;5011222;28;20458;-63
2020/12/05 08:50:41;;;;;;;15.13;10.65;;;5.20;1.00;;;;;;5011187;28;20415;-63
2020/12/05 08:53:07;;;;;;;13.95;11.20;;;5.30;1.00;;;;;;5010979;28;20478;-63
2020/12/05 08:55:34;;;;;;;14.90;10.73;;;5.30;1.00;;;;;;5010973;28;20409;-63
2020/12/05 08:58:02;;;;;;;14.38;11.43;;;5.30;1.00;;;;;;5010755;28;20416;-64
2020/12/05 09:00:31;;;;;;;14.88;11.45;;;5.30;1.00;;;;;;5010976;28;20428;-63
2020/12/05 09:02:57;;;;;;;11.88;9.40;;;5.40;1.00;;;;;;5011106;28;20412;-65
2020/12/05 09:05:23;;;;;;;13.93;10.50;;;5.50;1.00;;;;;;5010929;28;20417;-66
2020/12/05 09:07:53;;;;;;;13.25;9.85;;;5.50;1.00;;;;;;5010888;28;20491;-66
2020/12/05 09:10:20;;;;;;;11.95;9.50;;;5.60;1.00;;;;;;5010920;28;20828;-63
2020/12/05 09:12:46;;;;;;;10.82;9.40;;;5.60;1.00;;;;;;5010915;28;20425;-63
2020/12/05 09:15:13;;;;;;;10.77;9.07;;;5.70;1.00;;;;;;5008972;28;20426;-63
2020/12/05 09:17:40;;;;;;;10.23;8.75;;;5.80;1.00;;;;;;5010643;28;20417;-63
2020/12/05 09:20:12;;;;;;;9.82;8.82;;;5.80;1.00;;;;;;5010598;28;20950;-63
2020/12/05 09:22:39;;;;;;;9.25;7.90;;;5.90;1.00;;;;;;5010719;28;20470;-63
2020/12/05 09:25:06;;;;;;;10.00;8.10;;;5.80;1.00;;;;;;5014000;28;20416;-63
2020/12/05 09:27:36;;;;;;;9.02;8.07;;;5.90;1.00;;;;;;5014058;28;20420;-63
2020/12/05 09:30:05;;;;;;;11.13;7.57;;;5.90;1.00;;;;;;5013940;28;20893;-62
2020/12/05 09:32:40;;;;;;;9.40;7.30;;;6.00;1.00;;;;;;5014270;28;20428;-63
2020/12/05 09:35:06;;;;;;;8.00;6.70;;;6.10;1.00;;;;;;5014145;28;20427;-64
2020/12/05 09:37:33;;;;;;;7.82;6.68;;;6.10;1.00;;;;;;5013788;28;20416;-63
2020/12/05 09:39:59;;;;;;;7.25;6.20;;;6.10;99.90;;;;;;5014112;28;20471;-63
2020/12/05 09:42:26;;;;;;;9.10;6.32;;;6.20;99.90;;;;;;5011471;28;20848;-63
2020/12/05 09:44:52;;;;;;;8.25;6.60;;;6.20;99.90;;;;;;5013461;28;20971;-66
2020/12/05 09:47:18;;;;;;;5.70;5.10;;;6.20;99.90;;;;;;5013518;28;20409;-64
2020/12/05 09:49:45;;;;;;;7.25;5.00;;;6.30;99.90;;;;;;5013647;28;20412;-63
2020/12/05 09:52:11;;;;;;;5.93;4.90;;;6.40;99.90;;;;;;5013302;28;20917;-60
2020/12/05 09:54:38;;;;;;;5.47;4.68;;;6.40;99.90;;;;;;5013667;28;20536;-59
2020/12/05 09:57:04;;;;;;;5.23;4.70;;;6.40;99.90;;;;;;5013596;28;20417;-62
2020/12/05 09:59:30;;;;;;;5.43;4.93;;;6.40;99.90;;;;;;5013334;28;20417;-62
2020/12/05 10:01:56;;;;;;;5.85;5.25;;;6.50;99.90;;;;;;5013247;28;20412;-62
2020/12/05 10:04:23;;;;;;;5.30;4.80;;;6.50;99.90;;;;;;5013357;28;20830;-64
2020/12/05 10:06:50;;;;;;;4.87;4.40;;;6.60;99.90;;;;;;5012974;28;20413;-60
2020/12/05 10:09:16;;;;;;;4.40;4.00;;;6.60;99.90;;;;;;5013516;28;20474;-59
2020/12/05 10:11:42;;;;;;;3.90;3.60;;;6.70;99.90;;;;;;5013246;28;20504;-66
2020/12/05 10:14:08;;;;;;;5.22;4.28;;;6.70;99.90;;;;;;5013779;28;20417;-66
2020/12/05 10:16:34;;;;;;;4.78;3.60;;;6.60;99.90;;;;;;5013640;28;20959;-66
2020/12/05 10:19:00;;;;;;;4.60;4.20;;;6.60;99.90;;;;;;5014073;28;20462;-66
2020/12/05 10:21:26;;;;;;;4.47;3.95;;;6.60;99.90;;;;;;5012857;28;20502;-66
2020/12/05 10:23:53;;;;;;;4.60;4.10;;;6.30;99.90;;;;;;5013125;28;20416;-66
2020/12/05 10:26:19;;;;;;;4.68;4.18;;;6.30;99.90;;;;;;5013037;28;20471;-64
2020/12/05 10:28:46;;;;;;;4.50;4.10;;;6.20;99.90;;;;;;5012801;28;20417;-66
2020/12/05 10:31:12;;;;;;;4.40;4.00;;;6.00;99.90;;;;;;5012846;28;20482;-66
2020/12/05 10:33:38;;;;;;;5.20;3.80;;;6.00;99.90;;;;;;5012737;28;20455;-66
2020/12/05 10:36:04;;;;;;;4.40;3.97;;;6.00;99.90;;;;;;5011924;28;20747;-66
2020/12/05 10:38:30;;;;;;;4.90;4.15;;;6.10;99.90;;;;;;5012781;28;20451;-65
2020/12/05 10:40:57;;;;;;;5.50;4.00;;;6.30;99.90;;;;;;5012673;28;20416;-66
2020/12/05 10:43:23;;;;;;;4.50;4.10;;;6.30;99.90;;;;;;5011910;28;20420;-63
2020/12/05 10:45:49;;;;;;;4.20;3.80;;;6.40;99.90;;;;;;5012550;28;20456;-64
2020/12/05 10:48:16;;;;;;;4.85;3.83;;;6.50;99.90;;;;;;5012627;28;20966;-65
2020/12/05 10:50:42;;;;;;;4.32;3.92;;;6.60;99.90;;;;;;5012552;28;20471;-65
2020/12/05 10:53:08;;;;;;;4.65;4.25;;;6.70;99.90;;;;;;5012951;28;20437;-65
2020/12/05 10:55:34;;;;;;;3.50;3.20;;;6.70;99.90;;;;;;5012207;28;20467;-62
2020/12/05 10:58:01;;;;;;;5.27;3.90;;;6.60;99.90;;;;;;5012497;28;20412;-60
2020/12/05 11:00:27;;;;;;;4.40;3.90;;;6.50;99.90;;;;;;5012236;28;20897;-64
2020/12/05 11:02:53;;;;;;;3.90;3.50;;;6.50;99.90;;;;;;5012147;28;20409;-66
2020/12/05 11:05:19;;;;;;;3.70;3.00;;;6.50;99.90;;;;;;5012256;28;20785;-64
2020/12/05 11:07:45;;;;;;;3.00;2.80;;;6.50;99.90;;;;;;5012319;28;20467;-64
2020/12/05 11:10:11;;;;;;;3.08;2.85;;;6.50;99.90;;;;;;5012855;28;20412;-64
2020/12/05 11:12:37;;;;;;;3.10;2.80;;;6.50;99.90;;;;;;5011792;28;20912;-65
2020/12/05 11:15:04;;;;;;;2.78;2.50;;;6.50;99.90;;;;;;5012283;28;20455;-59
2020/12/05 11:17:30;;;;;;;4.03;2.63;;;6.50;99.90;;;;;;5011989;28;20483;-63
2020/12/05 11:19:56;;;;;;;4.63;2.15;;;6.50;99.90;;;;;;5012144;28;20413;-63
2020/12/05 11:22:24;;;;;;;4.78;2.60;;;6.60;99.90;;;;;;5012522;28;20416;-63
2020/12/05 11:24:50;;;;;;;2.42;2.22;;;6.80;99.90;;;;;;5012627;28;20413;-59
2020/12/05 11:27:16;;;;;;;2.60;2.30;;;6.90;99.90;;;;;;5011924;28;20416;-59
2020/12/05 11:29:42;;;;;;;3.10;2.80;;;7.00;99.90;;;;;;5012199;28;20413;-62
2020/12/05 11:32:09;;;;;;;2.50;2.30;;;7.20;99.90;;;;;;5011474;28;20432;-63
2020/12/05 11:34:35;;;;;;;3.30;2.72;;;7.30;99.90;;;;;;5011978;28;20447;-64
2020/12/05 11:37:01;;;;;;;2.38;2.00;;;7.40;99.90;;;;;;5011779;28;20463;-65
2020/12/05 11:39:27;;;;;;;2.88;2.55;;;7.50;99.90;;;;;;5011771;28;20421;-65
2020/12/05 11:41:53;;;;;;;2.40;2.20;;;7.30;99.90;;;;;;5011124;28;20466;-66
2020/12/05 11:44:19;;;;;;;2.90;2.70;;;7.20;99.90;;;;;;5010712;28;20466;-66
2020/12/05 11:46:49;;;;;;;2.90;2.20;;;7.40;99.90;;;;;;5011074;28;20828;-66
2020/12/05 11:49:15;;;;;;;2.58;2.00;;;7.50;99.90;;;;;;5011768;28;20416;-65
2020/12/05 11:51:42;;;;;;;1.70;1.52;;;7.60;99.90;;;;;;5011293;28;20413;-65
2020/12/05 11:54:08;;;;;;;1.70;1.60;;;7.60;99.90;;;;;;5011771;28;20412;-65
2020/12/05 11:56:34;;;;;;;1.80;1.70;;;7.70;99.90;;;;;;5011368;28;20421;-65
2020/12/05 11:59:00;;;;;;;1.95;1.75;;;7.70;99.90;;;;;;5011298;28;20475;-65
2020/12/05 12:01:26;;;;;;;1.40;1.30;;;7.70;99.90;;;;;;5011143;28;20470;-65
2020/12/05 12:03:52;;;;;;;2.30;1.60;;;7.70;99.90;;;;;;5011538;28;20409;-65
2020/12/05 12:06:19;;;;;;;2.03;1.60;;;7.70;99.90;;;;;;5011535;28;20972;-65
2020/12/05 12:08:46;;;;;;;1.83;1.73;;;7.80;99.90;;;;;;5011447;28;20904;-63
2020/12/05 12:11:15;;;;;;;1.50;1.40;;;7.70;99.90;;;;;;5011590;28;20817;-64
2020/12/05 12:13:41;;;;;;;1.50;1.40;;;7.50;99.90;;;;;;5010849;28;20803;-64
2020/12/05 12:16:07;;;;;;;1.73;1.60;;;7.50;99.90;;;;;;5011432;28;20471;-64
2020/12/05 12:18:33;;;;;;;2.30;1.70;;;7.50;99.90;;;;;;5011927;28;20820;-64
2020/12/05 12:20:59;;;;;;;1.48;1.30;;;7.40;99.90;;;;;;5011841;28;20416;-64
2020/12/05 12:23:26;;;;;;;2.05;1.50;;;7.50;99.90;;;;;;5009421;28;21136;-64
2020/12/05 12:25:53;;;;;;;1.98;1.70;;;7.50;99.90;;;;;;5011555;28;20417;-66
2020/12/05 12:28:19;;;;;;;1.98;1.80;;;7.40;99.90;;;;;;5011296;28;20781;-65
2020/12/05 12:30:45;;;;;;;1.40;1.30;;;7.50;99.90;;;;;;5010702;28;20420;-65
2020/12/05 12:33:11;;;;;;;1.90;1.40;;;7.60;99.90;;;;;;5010627;28;20513;-65
2020/12/05 12:35:37;;;;;;;2.08;1.80;;;7.60;99.90;;;;;;5010866;28;20425;-65
2020/12/05 12:38:03;;;;;;;2.00;1.10;;;7.60;99.90;;;;;;5010833;28;20421;-63
2020/12/05 12:40:30;;;;;;;1.63;1.52;;;7.60;99.90;;;;;;5010708;28;20417;-63
2020/12/05 12:42:58;;;;;;;1.80;1.40;;;7.70;99.90;;;;;;5010408;28;20409;-64
2020/12/05 12:45:28;;;;;;;2.30;1.40;;;7.80;99.90;;;;;;5011415;28;20420;-64
2020/12/05 12:48:36;;;;;;;1.30;1.20;;;7.90;99.90;;;;;;5011109;28;20419;-64
2020/12/05 12:50:45;;;;;;;1.40;1.27;;;7.90;99.90;;;;;;5010593;28;20419;-66
2020/12/05 12:53:11;;;;;;;2.17;1.50;;;7.70;99.90;;;;;;5010876;28;20436;-65
2020/12/05 12:55:38;;;;;;;1.60;1.50;;;7.50;99.90;;;;;;5010487;28;20833;-64
2020/12/05 12:58:10;;;;;;;1.70;1.35;;;7.40;99.90;;;;;;5011633;28;20446;-66